Time;durP1;ratioP1;P1;durP2;ratioP2;P2;SDS_P1;SDS_P2;PMS_P1;PMS_P2;Temp;Humidity;BMP_temperature;BMP_pressure;BME280_temperature;BME280_humidity;BME280_pressure;Samples;Min_cycle;Max_cycle;Signal;HPM_P1;HPM_P2
2022/04/04 12:20:58;;;;;;;;;;;;;;;5.91;54.12;97084.16;4237403;27;10368;-68
2022/04/04 12:25:21;;;;;;;;;;;;;;;5.61;52.91;97077.53;4233522;27;5711;-68
2022/04/04 12:27:24;;;;;;;;;;;;;;;5.70;52.63;97081.88;4230399;27;5776;-68
2022/04/04 12:29:26;;;;;;;;;;;;;;;5.82;52.07;97071.94;4230379;28;5723;-67
2022/04/04 12:31:28;;;;;;;;;;;;;;;5.83;53.09;97074.38;4232287;27;6343;-68
2022/04/04 12:33:33;;;;;;;;;;;;;;;5.97;53.09;97065.13;4230534;27;5821;-68
2022/04/04 12:35:41;;;;;;;;;;;;;;;6.19;53.00;97070.78;4244532;27;5613;-68
2022/04/04 12:37:44;;;;;;;;;;;;;;;6.26;52.82;97069.19;4244122;27;5628;-68
2022/04/04 12:39:49;;;;;;;;;;;;;;;6.16;51.92;97060.63;4245759;27;5610;-68
2022/04/04 12:41:56;;;;;;;;;;;;;;;5.79;52.65;97057.31;4244796;27;6294;-69
2022/04/04 12:44:00;;;;;;;;;;;;;;;6.02;52.64;97054.19;4244090;27;5606;-68
2022/04/04 12:46:03;;;;;;;;;;;;;;;6.21;52.39;97055.69;4246413;27;5617;-68
2022/04/04 12:48:07;;;;;;;;;;;;;;;6.23;52.69;97048.47;4222669;28;5685;-67
2022/04/04 12:50:13;;;;;;;;;;;;;;;6.39;53.23;97038.03;4243373;27;5719;-68
2022/04/04 12:52:15;;;;;;;;;;;;;;;6.56;51.92;97037.06;4247925;27;5655;-68
2022/04/04 12:54:25;;;;;;;;;;;;;;;6.68;51.92;97032.31;4230095;28;5637;-68
2022/04/04 12:56:28;;;;;;;;;;;;;;;6.45;52.06;97036.56;4247676;27;5714;-68
2022/04/04 12:58:30;;;;;;;;;;;;;;;6.67;51.53;97028.88;4248007;27;5079;-68
2022/04/04 13:00:35;;;;;;;;;;;;;;;6.73;51.62;97019.53;4236154;27;5807;-68
2022/04/04 13:02:37;;;;;;;;;;;;;;;6.69;50.58;97021.69;4218652;27;5640;-68
2022/04/04 13:04:40;;;;;;;;;;;;;;;6.65;51.65;97016.91;4244593;27;5602;-68
2022/04/04 13:06:47;;;;;;;;;;;;;;;6.75;51.47;97012.31;4245757;27;5621;-68
2022/04/04 13:08:58;;;;;;;;;;;;;;;6.80;51.65;97015.28;4247438;27;5614;-68
2022/04/04 13:11:10;;;;;;;;;;;;;;;6.82;51.66;97013.31;4247183;27;5602;-68
2022/04/04 13:13:17;;;;;;;;;;;;;;;6.73;50.97;97009.03;4211600;28;5662;-68
2022/04/04 13:15:39;;;;;;;;;;;;;;;6.68;50.86;97006.06;4236160;27;5621;-68
2022/04/04 13:17:42;;;;;;;;;;;;;;;6.79;50.95;97008.34;4243331;27;5692;-68
2022/04/04 13:19:44;;;;;;;;;;;;;;;6.92;51.45;96995.56;4217632;28;5702;-68
2022/04/04 13:21:50;;;;;;;;;;;;;;;6.90;51.11;96991.44;4218958;28;8033;-68
2022/04/04 13:23:52;;;;;;;;;;;;;;;6.86;50.76;96993.59;4216015;28;5759;-68
2022/04/04 13:25:54;;;;;;;;;;;;;;;6.93;51.38;97004.28;4209644;28;5862;-68
2022/04/04 13:27:55;;;;;;;;;;;;;;;6.84;51.36;96990.31;4192131;28;5663;-69
2022/04/04 13:29:59;;;;;;;;;;;;;;;6.87;51.03;96994.41;4206257;28;5813;-68
2022/04/04 13:32:01;;;;;;;;;;;;;;;6.97;51.33;96984.53;4210862;28;5318;-69
2022/04/04 13:34:03;;;;;;;;;;;;;;;6.87;51.28;96989.16;4201304;28;7317;-68
2022/04/04 13:36:05;;;;;;;;;;;;;;;7.05;51.09;96987.16;4217285;28;5826;-68
2022/04/04 13:38:07;;;;;;;;;;;;;;;7.11;50.87;96986.50;4217024;28;5768;-69
2022/04/04 13:40:10;;;;;;;;;;;;;;;7.20;51.11;96984.69;4215526;28;5694;-68
2022/04/04 13:42:15;;;;;;;;;;;;;;;7.16;50.36;96978.94;4203415;28;5834;-69
2022/04/04 13:44:17;;;;;;;;;;;;;;;7.05;51.42;96978.47;4214463;28;5677;-69
2022/04/04 13:46:20;;;;;;;;;;;;;;;7.14;51.54;96975.66;4209238;28;5661;-69
2022/04/04 13:48:22;;;;;;;;;;;;;;;7.26;51.44;96979.59;4217195;28;5689;-69
2022/04/04 13:50:24;;;;;;;;;;;;;;;7.37;51.81;96970.53;4213250;28;5811;-69
2022/04/04 13:52:26;;;;;;;;;;;;;;;7.43;51.19;96969.81;4205137;28;5649;-70
2022/04/04 13:54:28;;;;;;;;;;;;;;;7.43;50.97;96969.81;4204089;28;5154;-69
2022/04/04 13:56:32;;;;;;;;;;;;;;;7.47;50.84;96965.84;4215291;28;7689;-70
2022/04/04 13:58:36;;;;;;;;;;;;;;;7.46;50.91;96963.41;4201605;28;5698;-70
2022/04/04 14:00:38;;;;;;;;;;;;;;;7.38;50.61;96964.28;4201735;28;5710;-70
2022/04/04 14:02:43;;;;;;;;;;;;;;;7.09;50.48;96953.47;4216006;28;5728;-70
2022/04/04 14:04:45;;;;;;;;;;;;;;;7.28;51.11;96955.75;4216256;28;5676;-69
2022/04/04 14:06:47;;;;;;;;;;;;;;;7.41;50.95;96953.41;4209915;28;5681;-70
2022/04/04 14:08:49;;;;;;;;;;;;;;;7.29;51.09;96947.69;4213832;28;5684;-69
2022/04/04 14:10:54;;;;;;;;;;;;;;;7.21;51.22;96946.88;4216411;28;5865;-69
2022/04/04 14:12:56;;;;;;;;;;;;;;;7.35;51.87;96950.63;4218437;28;5093;-69
2022/04/04 14:14:58;;;;;;;;;;;;;;;7.50;51.82;96951.56;4217915;28;5684;-70
2022/04/04 14:17:03;;;;;;;;;;;;;;;7.51;51.38;96946.13;4217147;28;5795;-69
2022/04/04 14:19:05;;;;;;;;;;;;;;;7.41;50.86;96940.25;4203801;28;6583;-69
2022/04/04 14:21:08;;;;;;;;;;;;;;;7.45;51.80;96936.28;4207806;28;5727;-70
2022/04/04 14:23:10;;;;;;;;;;;;;;;7.35;51.80;96930.38;4227570;27;5678;-70
2022/04/04 14:25:12;;;;;;;;;;;;;;;7.29;52.04;96939.78;4234920;27;5605;-69
2022/04/04 14:27:21;;;;;;;;;;;;;;;7.45;51.76;96933.66;4217102;28;5696;-71
2022/04/04 14:29:23;;;;;;;;;;;;;;;7.34;52.08;96926.13;4208477;28;5672;-70
2022/04/04 14:31:29;;;;;;;;;;;;;;;7.15;52.29;96932.59;4221639;28;5632;-70
2022/04/04 14:33:31;;;;;;;;;;;;;;;7.25;51.49;96925.34;4220413;28;5696;-70
2022/04/04 14:35:33;;;;;;;;;;;;;;;7.09;51.93;96924.56;4219099;28;5605;-70
2022/04/04 14:37:34;;;;;;;;;;;;;;;7.16;51.22;96930.78;4224173;28;5693;-69
2022/04/04 14:39:38;;;;;;;;;;;;;;;7.21;52.26;96931.09;4213461;28;5624;-69
2022/04/04 14:41:40;;;;;;;;;;;;;;;7.24;52.00;96918.44;4233104;28;5786;-70
2022/04/04 14:43:42;;;;;;;;;;;;;;;7.26;52.92;96920.91;4203793;28;5781;-70
2022/04/04 14:45:44;;;;;;;;;;;;;;;7.20;52.19;96921.56;4209298;28;5684;-70
2022/04/04 14:47:46;;;;;;;;;;;;;;;7.33;52.57;96921.84;4230940;28;5655;-69
2022/04/04 14:49:47;;;;;;;;;;;;;;;7.42;52.30;96918.22;4220144;28;5105;-69
2022/04/04 14:51:50;;;;;;;;;;;;;;;7.45;52.13;96912.59;4220578;28;5775;-69
2022/04/04 14:53:52;;;;;;;;;;;;;;;7.51;51.77;96904.03;4222713;28;5776;-70
2022/04/04 14:55:55;;;;;;;;;;;;;;;7.56;51.78;96904.34;4225602;28;5853;-70
2022/04/04 14:57:57;;;;;;;;;;;;;;;7.61;52.28;96906.47;4227216;28;5813;-69
2022/04/04 15:00:00;;;;;;;;;;;;;;;7.47;52.02;96907.16;4219087;28;5717;-69
2022/04/04 15:02:02;;;;;;;;;;;;;;;7.47;52.57;96904.53;4222229;28;5795;-71
2022/04/04 15:04:05;;;;;;;;;;;;;;;7.59;52.22;96903.19;4224504;28;5772;-70
2022/04/04 15:06:07;;;;;;;;;;;;;;;7.57;51.93;96902.53;4219797;28;5703;-71
2022/04/04 15:08:10;;;;;;;;;;;;;;;7.55;51.91;96894.00;4202400;28;5748;-71
2022/04/04 15:10:13;;;;;;;;;;;;;;;7.61;51.07;96892.50;4224552;28;5732;-70
2022/04/04 15:12:14;;;;;;;;;;;;;;;7.66;51.79;96890.97;4224109;28;5779;-71
2022/04/04 15:14:16;;;;;;;;;;;;;;;7.74;52.04;96898.00;4229308;28;5717;-71
2022/04/04 15:16:18;;;;;;;;;;;;;;;7.57;52.78;96895.44;4221330;28;5719;-71
2022/04/04 15:18:25;;;;;;;;;;;;;;;7.58;53.48;96894.47;4222517;28;5806;-72
2022/04/04 15:20:28;;;;;;;;;;;;;;;7.60;53.58;96902.19;4222672;28;5701;-71
2022/04/04 15:22:30;;;;;;;;;;;;;;;7.61;53.18;96901.22;4220697;28;5126;-71
2022/04/04 15:24:32;;;;;;;;;;;;;;;7.63;53.34;96896.59;4224700;28;5688;-72
2022/04/04 15:26:35;;;;;;;;;;;;;;;7.63;52.29;96893.97;4227072;27;5740;-72
2022/04/04 15:28:38;;;;;;;;;;;;;;;7.69;52.33;96893.25;4222607;28;6429;-71
2022/04/04 15:30:40;;;;;;;;;;;;;;;7.56;52.81;96885.91;4208406;28;5639;-71
2022/04/04 15:32:42;;;;;;;;;;;;;;;7.62;53.23;96894.13;4214078;28;5716;-72
2022/04/04 15:34:44;;;;;;;;;;;;;;;7.70;53.47;96886.19;4216999;28;5791;-71
2022/04/04 15:36:47;;;;;;;;;;;;;;;7.63;51.81;96880.81;4232848;27;5788;-70
2022/04/04 15:38:50;;;;;;;;;;;;;;;7.64;52.74;96877.19;4239713;27;5696;-70
2022/04/04 15:40:53;;;;;;;;;;;;;;;7.70;52.49;96880.91;4220912;28;5716;-70
2022/04/04 15:42:54;;;;;;;;;;;;;;;7.78;52.70;96875.63;4214295;28;5785;-71
2022/04/04 15:44:59;;;;;;;;;;;;;;;7.86;52.31;96871.13;4213964;28;5711;-70
2022/04/04 15:47:00;;;;;;;;;;;;;;;7.86;51.97;96863.22;4227161;28;5709;-71
2022/04/04 15:49:05;;;;;;;;;;;;;;;7.86;51.87;96868.50;4230991;28;5732;-71
2022/04/04 15:51:06;;;;;;;;;;;;;;;7.75;52.05;96865.44;4231225;28;5705;-70
2022/04/04 15:53:13;;;;;;;;;;;;;;;7.82;51.43;96872.47;4231076;28;5701;-70
2022/04/04 15:55:14;;;;;;;;;;;;;;;7.81;51.67;96867.38;4230586;28;5688;-70
2022/04/04 15:57:16;;;;;;;;;;;;;;;7.73;51.90;96868.25;4231212;28;5712;-70
2022/04/04 15:59:18;;;;;;;;;;;;;;;7.62;51.72;96867.81;4230814;28;5696;-70
2022/04/04 16:01:21;;;;;;;;;;;;;;;7.62;52.21;96859.94;4230861;28;5800;-70
2022/04/04 16:03:22;;;;;;;;;;;;;;;7.64;52.33;96865.84;4231034;28;5862;-70
2022/04/04 16:05:24;;;;;;;;;;;;;;;7.57;52.32;96863.88;4230764;28;5749;-70
2022/04/04 16:07:26;;;;;;;;;;;;;;;7.52;52.29;96858.31;4230959;28;5712;-72
2022/04/04 16:09:27;;;;;;;;;;;;;;;7.49;52.64;96871.84;4230548;28;5757;-71
2022/04/04 16:11:30;;;;;;;;;;;;;;;7.40;52.93;96858.88;4230560;28;5112;-69
2022/04/04 16:13:32;;;;;;;;;;;;;;;7.40;53.59;96864.97;4230934;28;7800;-70
2022/04/04 16:15:34;;;;;;;;;;;;;;;7.56;54.00;96859.59;4230628;28;5797;-70
2022/04/04 16:17:35;;;;;;;;;;;;;;;7.51;54.25;96861.94;4230911;28;5107;-70
2022/04/04 16:19:37;;;;;;;;;;;;;;;7.56;54.06;96858.78;4230628;28;5779;-69
2022/04/04 16:21:39;;;;;;;;;;;;;;;7.54;53.56;96852.88;4219720;27;5703;-70
2022/04/04 16:23:41;;;;;;;;;;;;;;;7.55;54.29;96857.16;4213894;28;5720;-70
2022/04/04 16:25:43;;;;;;;;;;;;;;;7.58;54.15;96852.38;4213281;28;5711;-70
2022/04/04 16:27:46;;;;;;;;;;;;;;;7.62;54.07;96857.31;4213556;28;5711;-69
2022/04/04 16:29:50;;;;;;;;;;;;;;;7.51;54.36;96850.63;4214025;28;5727;-70
2022/04/04 16:31:51;;;;;;;;;;;;;;;7.54;54.50;96856.34;4213597;28;5712;-70
2022/04/04 16:33:53;;;;;;;;;;;;;;;7.58;54.03;96854.16;4195368;28;5759;-70
2022/04/04 16:35:55;;;;;;;;;;;;;;;7.50;54.12;96849.78;4213777;28;7725;-70
2022/04/04 16:37:59;;;;;;;;;;;;;;;7.51;54.17;96855.88;4226697;27;5815;-71
2022/04/04 16:40:01;;;;;;;;;;;;;;;7.57;54.49;96860.44;4247468;27;5792;-70
2022/04/04 16:42:08;;;;;;;;;;;;;;;7.58;54.03;96855.00;4221464;28;5713;-70
2022/04/04 16:44:10;;;;;;;;;;;;;;;7.51;53.73;96867.22;4230507;28;5693;-70
2022/04/04 16:46:13;;;;;;;;;;;;;;;7.44;53.53;96853.09;4230177;28;5629;-70
2022/04/04 16:48:14;;;;;;;;;;;;;;;7.49;53.69;96857.88;4230151;28;5701;-70
2022/04/04 16:50:20;;;;;;;;;;;;;;;7.45;53.95;96852.09;4230338;28;5701;-71
2022/04/04 16:52:22;;;;;;;;;;;;;;;7.40;53.45;96854.44;4195872;28;5854;-71
2022/04/04 16:54:24;;;;;;;;;;;;;;;7.45;53.53;96856.53;4213388;28;5767;-70
2022/04/04 16:56:25;;;;;;;;;;;;;;;7.44;53.92;96860.16;4214558;28;5790;-71
2022/04/04 16:58:28;;;;;;;;;;;;;;;7.42;53.71;96857.72;4216500;28;5715;-70
2022/04/04 17:00:29;;;;;;;;;;;;;;;7.36;53.76;96847.91;4216348;28;5833;-71
2022/04/04 17:02:31;;;;;;;;;;;;;;;7.38;53.64;96856.44;4216598;28;5711;-71
2022/04/04 17:04:33;;;;;;;;;;;;;;;7.39;53.44;96854.63;4216667;28;5728;-70
2022/04/04 17:06:35;;;;;;;;;;;;;;;7.43;53.54;96854.09;4216596;28;5799;-70
2022/04/04 17:08:37;;;;;;;;;;;;;;;7.44;53.33;96854.91;4216443;28;6593;-70
2022/04/04 17:10:38;;;;;;;;;;;;;;;7.43;53.44;96851.47;4214741;28;5782;-70
2022/04/04 17:12:40;;;;;;;;;;;;;;;7.49;53.61;96852.59;4216398;28;5719;-70
2022/04/04 17:14:42;;;;;;;;;;;;;;;7.52;52.84;96847.00;4216324;28;5701;-71
2022/04/04 17:16:43;;;;;;;;;;;;;;;7.45;52.82;96852.09;4216444;28;5731;-71
2022/04/04 17:18:45;;;;;;;;;;;;;;;7.38;53.48;96845.91;4216495;28;5727;-70
2022/04/04 17:20:46;;;;;;;;;;;;;;;7.37;53.16;96852.16;4214444;28;5838;-70
2022/04/04 17:22:48;;;;;;;;;;;;;;;7.39;53.34;96850.19;4219500;28;5719;-70
2022/04/04 17:24:51;;;;;;;;;;;;;;;7.33;53.31;96842.97;4216082;28;5707;-70
2022/04/04 17:26:52;;;;;;;;;;;;;;;7.20;53.86;96843.50;4231549;28;5700;-70
2022/04/04 17:28:57;;;;;;;;;;;;;;;7.31;53.82;96844.94;4233325;28;5816;-71
2022/04/04 17:30:59;;;;;;;;;;;;;;;7.26;53.83;96848.09;4213976;28;5736;-71
2022/04/04 17:33:02;;;;;;;;;;;;;;;7.33;53.97;96850.84;4232924;28;5704;-71
2022/04/04 17:35:05;;;;;;;;;;;;;;;7.36;54.03;96847.06;4232858;28;5693;-71
2022/04/04 17:37:09;;;;;;;;;;;;;;;7.24;53.98;96851.88;4232685;28;5787;-70
2022/04/04 17:39:14;;;;;;;;;;;;;;;7.16;53.77;96844.03;4232678;28;5692;-71
2022/04/04 17:41:17;;;;;;;;;;;;;;;7.29;53.75;96844.31;4221968;28;5727;-71
2022/04/04 17:43:18;;;;;;;;;;;;;;;7.35;53.96;96856.75;4215897;28;5708;-71
2022/04/04 17:45:21;;;;;;;;;;;;;;;7.34;53.88;96852.50;4216083;28;5696;-71
2022/04/04 17:47:23;;;;;;;;;;;;;;;7.24;53.69;96855.31;4215892;28;5733;-72
2022/04/04 17:49:24;;;;;;;;;;;;;;;7.22;53.78;96859.94;4216054;28;5809;-71
2022/04/04 17:51:32;;;;;;;;;;;;;;;7.19;53.74;96846.31;4198777;28;5635;-72
2022/04/04 17:53:33;;;;;;;;;;;;;;;7.17;53.44;96843.03;4225799;28;5643;-71
2022/04/04 17:55:35;;;;;;;;;;;;;;;7.12;53.17;96848.78;4232420;28;5794;-71
2022/04/04 17:57:37;;;;;;;;;;;;;;;7.12;53.46;96846.16;4232765;28;5688;-71
2022/04/04 17:59:39;;;;;;;;;;;;;;;7.07;53.83;96845.88;4214507;28;5837;-72
2022/04/04 18:01:42;;;;;;;;;;;;;;;6.96;54.53;96840.97;4231808;28;5696;-72
2022/04/04 18:03:44;;;;;;;;;;;;;;;7.03;53.75;96847.22;4232521;28;5709;-71
2022/04/04 18:05:46;;;;;;;;;;;;;;;7.07;53.45;96845.03;4232711;28;5697;-71
2022/04/04 18:07:48;;;;;;;;;;;;;;;7.08;53.77;96844.06;4232467;28;5724;-71
2022/04/04 18:09:49;;;;;;;;;;;;;;;7.03;55.33;96844.56;4232578;28;5895;-71
2022/04/04 18:11:53;;;;;;;;;;;;;;;7.00;55.31;96844.91;4232225;28;5721;-71
2022/04/04 18:13:58;;;;;;;;;;;;;;;6.95;55.85;96850.66;4230297;28;5759;-71
2022/04/04 18:16:00;;;;;;;;;;;;;;;6.97;55.61;96847.88;4219100;28;5719;-71
2022/04/04 18:18:02;;;;;;;;;;;;;;;7.05;55.43;96858.38;4215354;28;5887;-71
2022/04/04 18:20:11;;;;;;;;;;;;;;;7.12;55.14;96858.50;4234545;27;5693;-71
2022/04/04 18:22:13;;;;;;;;;;;;;;;7.13;54.96;96858.31;4214768;28;5800;-71
2022/04/04 18:24:18;;;;;;;;;;;;;;;7.18;55.15;96849.94;4215283;28;5731;-71
2022/04/04 18:26:22;;;;;;;;;;;;;;;7.19;54.71;96856.84;4209542;28;5720;-71
2022/04/04 18:28:23;;;;;;;;;;;;;;;7.20;54.30;96858.47;4215573;28;5733;-71
2022/04/04 18:30:25;;;;;;;;;;;;;;;7.13;54.24;96862.75;4233659;27;5725;-72
2022/04/04 18:32:27;;;;;;;;;;;;;;;6.88;54.62;96864.63;4237247;27;5674;-71
2022/04/04 18:34:32;;;;;;;;;;;;;;;6.94;55.04;96862.19;4237770;27;6374;-71
2022/04/04 18:36:33;;;;;;;;;;;;;;;6.87;54.90;96865.63;4225081;28;5605;-71
2022/04/04 18:38:35;;;;;;;;;;;;;;;6.94;54.74;96877.94;4233383;28;5841;-70
2022/04/04 18:40:40;;;;;;;;;;;;;;;7.05;54.95;96870.69;4231422;28;5598;-71
2022/04/04 18:42:42;;;;;;;;;;;;;;;7.09;54.94;96878.06;4230155;27;5590;-71
2022/04/04 18:44:43;;;;;;;;;;;;;;;7.09;54.97;96874.59;4231633;28;5626;-71
2022/04/04 18:46:46;;;;;;;;;;;;;;;7.08;55.06;96880.84;4233766;28;5581;-71
2022/04/04 18:48:48;;;;;;;;;;;;;;;6.98;54.93;96886.31;4239091;27;5595;-72
2022/04/04 18:50:50;;;;;;;;;;;;;;;6.99;55.47;96883.50;4236898;27;5603;-71
2022/04/04 18:52:52;;;;;;;;;;;;;;;6.99;55.40;96895.81;4232822;27;6320;-71
2022/04/04 18:54:54;;;;;;;;;;;;;;;7.09;55.21;96888.56;4232486;28;5810;-71
2022/04/04 18:56:55;;;;;;;;;;;;;;;7.13;55.46;96889.88;4212939;28;6843;-71
2022/04/04 18:58:57;;;;;;;;;;;;;;;7.11;55.11;96889.22;4232370;27;5602;-72
2022/04/04 19:00:59;;;;;;;;;;;;;;;7.05;55.60;96897.78;4227829;27;5590;-71
2022/04/04 19:03:01;;;;;;;;;;;;;;;6.97;55.82;96893.38;4228557;28;5712;-71
2022/04/04 19:05:03;;;;;;;;;;;;;;;7.07;55.32;96884.47;4228066;27;5629;-72
2022/04/04 19:07:05;;;;;;;;;;;;;;;7.12;54.90;96888.22;4227375;28;5767;-70
2022/04/04 19:09:07;;;;;;;;;;;;;;;7.11;55.13;96885.78;4230091;28;5610;-71
2022/04/04 19:11:09;;;;;;;;;;;;;;;7.14;55.11;96890.72;4229254;28;5860;-71
2022/04/04 19:13:10;;;;;;;;;;;;;;;7.11;54.42;96886.59;4233692;28;5685;-71
2022/04/04 19:15:12;;;;;;;;;;;;;;;7.01;53.75;96896.47;4226912;28;5684;-71
2022/04/04 19:17:15;;;;;;;;;;;;;;;7.05;54.22;96897.78;4228886;28;5701;-71
2022/04/04 19:19:17;;;;;;;;;;;;;;;7.07;53.81;96895.00;4212881;28;7454;-71
2022/04/04 19:21:19;;;;;;;;;;;;;;;7.03;53.65;96898.97;4196950;28;5628;-71
2022/04/04 19:23:21;;;;;;;;;;;;;;;7.01;53.53;96901.72;4229683;28;5705;-71
2022/04/04 19:25:22;;;;;;;;;;;;;;;7.10;53.66;96905.97;4231718;28;5609;-71
2022/04/04 19:27:24;;;;;;;;;;;;;;;6.90;53.86;96909.97;4233632;28;5625;-70
2022/04/04 19:29:26;;;;;;;;;;;;;;;6.91;53.97;96907.19;4232487;28;5651;-71
2022/04/04 19:31:30;;;;;;;;;;;;;;;6.88;55.45;96912.75;4216708;28;5632;-70
2022/04/04 19:33:32;;;;;;;;;;;;;;;6.90;55.84;96913.41;4233359;28;6303;-70
2022/04/04 19:35:35;;;;;;;;;;;;;;;6.84;55.85;96908.84;4231646;28;5707;-71
2022/04/04 19:37:39;;;;;;;;;;;;;;;6.88;55.72;96911.94;4214408;28;5699;-70
2022/04/04 19:39:40;;;;;;;;;;;;;;;6.80;56.55;96917.22;4230842;28;5764;-68
2022/04/04 19:41:42;;;;;;;;;;;;;;;6.80;56.64;96923.31;4232744;28;5676;-69
2022/04/04 19:43:44;;;;;;;;;;;;;;;6.80;57.80;96925.94;4211118;28;5882;-63
2022/04/04 19:45:46;;;;;;;;;;;;;;;6.83;57.83;96930.84;4210727;28;5828;-69
2022/04/04 19:47:50;;;;;;;;;;;;;;;6.85;57.11;96930.69;4227325;28;5621;-65
2022/04/04 19:49:51;;;;;;;;;;;;;;;6.79;58.08;96926.06;4227300;28;6147;-68
2022/04/04 19:51:53;;;;;;;;;;;;;;;6.80;58.85;96931.19;4209035;28;5716;-68
2022/04/04 19:53:55;;;;;;;;;;;;;;;6.79;59.36;96928.69;4207199;28;5692;-64
2022/04/04 19:55:57;;;;;;;;;;;;;;;6.89;58.62;96934.59;4229546;28;5812;-64
2022/04/04 19:57:59;;;;;;;;;;;;;;;6.84;59.61;96934.31;4232373;27;5593;-68
2022/04/04 20:00:03;;;;;;;;;;;;;;;6.84;59.59;96929.88;4228807;28;5798;-68
2022/04/04 20:02:07;;;;;;;;;;;;;;;6.96;59.24;96940.84;4226527;28;5822;-64
2022/04/04 20:04:09;;;;;;;;;;;;;;;6.82;59.51;96934.47;4229918;28;5613;-64
2022/04/04 20:06:10;;;;;;;;;;;;;;;6.88;59.73;96927.72;4228118;28;5693;-64
2022/04/04 20:08:12;;;;;;;;;;;;;;;6.80;60.60;96933.00;4232110;28;5763;-64
2022/04/04 20:10:14;;;;;;;;;;;;;;;6.91;60.02;96935.28;4228895;28;5692;-64
2022/04/04 20:12:16;;;;;;;;;;;;;;;7.00;59.46;96931.63;4231966;28;6092;-65
2022/04/04 20:14:18;;;;;;;;;;;;;;;7.04;59.54;96926.88;4228724;28;5609;-64
2022/04/04 20:16:19;;;;;;;;;;;;;;;7.07;59.40;96932.63;4230534;28;5626;-63
2022/04/04 20:18:21;;;;;;;;;;;;;;;7.10;59.47;96937.53;4206087;28;5617;-64
2022/04/04 20:20:23;;;;;;;;;;;;;;;7.13;60.01;96933.75;4220392;28;5661;-63
2022/04/04 20:22:24;;;;;;;;;;;;;;;7.09;60.68;96940.34;4232748;28;5598;-64
2022/04/04 20:24:26;;;;;;;;;;;;;;;7.10;60.87;96940.16;4231845;28;5701;-64
2022/04/04 20:26:28;;;;;;;;;;;;;;;7.09;60.89;96932.44;4232009;28;5837;-64
2022/04/04 20:28:29;;;;;;;;;;;;;;;7.17;60.70;96935.06;4231950;28;5614;-64
2022/04/04 20:30:31;;;;;;;;;;;;;;;7.17;60.89;96924.53;4232899;28;5672;-62
2022/04/04 20:32:36;;;;;;;;;;;;;;;7.19;60.52;96927.81;4235308;28;5597;-63
2022/04/04 20:34:37;;;;;;;;;;;;;;;7.19;60.27;96935.72;4235019;28;5629;-63
2022/04/04 20:36:59;;;;;;;;;;;;;;;7.20;60.68;96932.91;4229903;28;5589;-63
2022/04/04 20:39:01;;;;;;;;;;;;;;;7.19;59.98;96938.34;4216053;28;5716;-63
2022/04/04 20:41:03;;;;;;;;;;;;;;;7.21;60.03;96934.53;4234952;28;5697;-62
2022/04/04 20:43:05;;;;;;;;;;;;;;;7.12;60.55;96940.00;4217658;28;5632;-63
2022/04/04 20:45:10;;;;;;;;;;;;;;;7.20;59.98;96937.34;4223278;28;5669;-63
2022/04/04 20:47:12;;;;;;;;;;;;;;;7.17;60.13;96938.50;4233193;27;5971;-77
2022/04/04 20:49:14;;;;;;;;;;;;;;;7.16;60.20;96941.31;4213789;28;5659;-63
2022/04/04 20:51:19;;;;;;;;;;;;;;;7.11;60.15;96948.88;4231737;28;5684;-63
2022/04/04 20:53:21;;;;;;;;;;;;;;;7.17;60.03;96943.78;4232123;27;5606;-69
2022/04/04 20:55:23;;;;;;;;;;;;;;;7.10;61.00;96947.22;4230629;27;5614;-65
2022/04/04 20:57:25;;;;;;;;;;;;;;;7.16;60.51;96943.94;4234477;28;5704;-67
